Time;durP1;ratioP1;P1;durP2;ratioP2;P2;SDS_P1;SDS_P2;PMS_P1;PMS_P2;Temp;Humidity;BMP_temperature;BMP_pressure;BME280_temperature;BME280_humidity;BME280_pressure;Samples;Min_cycle;Max_cycle;Signal;HPM_P1;HPM_P2
2023/08/02 00:02:04;;;;;;;2.33;1.67;;;;;;;15.67;99.27;155386.16;5047302;28;20442;-82
2023/08/02 00:04:31;;;;;;;2.43;1.83;;;;;;;15.66;99.67;155384.84;5062858;28;20497;-82
2023/08/02 00:06:57;;;;;;;2.60;2.10;;;;;;;15.68;100.00;155390.03;5047351;28;21044;-82
2023/08/02 00:09:24;;;;;;;2.60;1.83;;;;;;;15.67;100.00;155387.41;5045482;28;20462;-82
2023/08/02 00:11:51;;;;;;;2.63;1.77;;;;;;;15.65;100.00;155382.22;5067312;28;20469;-82
2023/08/02 00:14:18;;;;;;;2.13;1.70;;;;;;;15.66;100.00;155384.84;5065161;28;20546;-81
2023/08/02 00:16:49;;;;;;;2.40;1.67;;;;;;;15.66;100.00;155383.53;5064552;28;20455;-82
2023/08/02 00:19:15;;;;;;;3.90;2.00;;;;;;;15.66;100.00;155384.84;5023628;28;20475;-81
2023/08/02 00:21:42;;;;;;;2.33;1.80;;;;;;;15.64;100.00;155378.34;5062426;28;20466;-82
2023/08/02 00:24:10;;;;;;;2.10;1.90;;;;;;;15.68;100.00;155390.03;5056966;28;20466;-82
2023/08/02 00:26:37;;;;;;;3.07;1.70;;;;;;;15.71;100.00;155397.84;5046092;28;20977;-82
2023/08/02 00:29:04;;;;;;;2.90;2.13;;;;;;;15.71;100.00;155397.84;5055227;28;20523;-82
2023/08/02 00:31:30;;;;;;;3.27;2.00;;;;;;;15.72;100.00;155400.47;5042896;28;20475;-82
2023/08/02 00:33:58;;;;;;;3.33;1.90;;;;;;;15.73;100.00;155403.03;5052373;28;20554;-82
2023/08/02 00:36:25;;;;;;;3.10;1.70;;;;;;;15.72;100.00;155400.47;5063780;28;20800;-82
2023/08/02 00:38:51;;;;;;;2.33;1.90;;;;;;;15.72;100.00;155400.47;5045961;28;20477;-82
2023/08/02 00:41:18;;;;;;;2.67;1.90;;;;;;;15.72;100.00;155400.47;5046861;28;20966;-82
2023/08/02 00:43:46;;;;;;;3.43;1.90;;;;;;;15.78;100.00;155416.03;5029099;28;20895;-82
2023/08/02 00:46:16;;;;;;;2.40;1.93;;;;;;;15.81;100.00;155422.53;5010448;28;20554;-82
2023/08/02 00:48:43;;;;;;;5.00;2.37;;;;;;;15.77;100.00;155413.47;5043594;28;20517;-83
2023/08/02 00:51:12;;;;;;;2.27;2.00;;;;;;;15.78;99.55;155416.03;5026817;28;20486;-82
2023/08/02 00:53:39;;;;;;;2.70;1.87;;;;;;;15.81;100.00;155423.81;5045386;28;20455;-82
2023/08/02 00:56:06;;;;;;;3.40;1.93;;;;;;;15.80;100.00;155421.25;5029110;28;20451;-82
2023/08/02 00:58:33;;;;;;;3.10;2.10;;;;;;;15.78;100.00;155416.03;5012558;28;20458;-82
2023/08/02 01:01:06;;;;;;;3.10;1.90;;;;;;;15.75;100.00;155406.97;5047589;28;20997;-82
2023/08/02 01:03:33;;;;;;;3.13;2.13;;;;;;;15.71;100.00;155397.84;5046348;28;20534;-82
2023/08/02 01:06:06;;;;;;;2.20;1.87;;;;;;;15.62;100.00;155374.41;5011745;28;20479;-83
2023/08/02 01:08:36;;;;;;;3.23;2.20;;;;;;;15.64;100.00;155379.66;5045690;28;20474;-82
2023/08/02 01:11:07;;;;;;;3.07;2.20;;;;;;;15.62;100.00;155374.41;5024780;28;20506;-82
2023/08/02 01:13:34;;;;;;;4.33;2.53;;;;;;;15.60;100.00;155369.22;5062869;28;21003;-82
2023/08/02 01:16:01;;;;;;;3.27;2.00;;;;;;;15.60;100.00;155367.91;5062852;28;20992;-82
2023/08/02 01:18:28;;;;;;;2.43;1.83;;;;;;;15.58;100.00;155364.03;5021329;28;20455;-82
2023/08/02 01:20:56;;;;;;;2.20;1.83;;;;;;;15.52;100.00;155348.44;5028125;28;20454;-82
2023/08/02 01:23:22;;;;;;;3.00;2.13;;;;;;;15.50;100.00;155343.25;5047646;28;20431;-82
2023/08/02 01:25:50;;;;;;;2.27;1.70;;;;;;;15.43;100.00;155325.00;5012758;28;20460;-82
2023/08/02 01:28:18;;;;;;;2.40;2.00;;;;;;;15.47;100.00;155335.44;5026951;28;20490;-82
2023/08/02 01:30:45;;;;;;;2.77;1.90;;;;;;;15.41;100.00;155319.78;5062864;28;20601;-82
2023/08/02 01:33:12;;;;;;;2.50;2.00;;;;;;;15.35;100.00;155302.91;5025308;28;20840;-82
2023/08/02 01:35:39;;;;;;;2.40;2.00;;;;;;;15.34;100.00;155301.59;5009987;28;20447;-82
2023/08/02 01:38:07;;;;;;;2.80;2.03;;;;;;;15.36;100.00;155305.47;5042728;28;20844;-82
2023/08/02 01:40:34;;;;;;;4.30;2.07;;;;;;;15.38;100.00;155310.72;5026053;28;20448;-82
2023/08/02 01:43:00;;;;;;;2.53;1.83;;;;;;;15.35;100.00;155304.22;5009729;28;20530;-82
2023/08/02 01:45:27;;;;;;;3.03;1.97;;;;;;;15.31;100.00;155293.78;5014423;28;20472;-82
2023/08/02 01:47:54;;;;;;;2.47;1.87;;;;;;;15.30;100.00;155291.22;5048795;28;20462;-82
2023/08/02 01:50:21;;;;;;;2.80;2.00;;;;;;;15.29;100.00;155288.63;5063961;28;20478;-83
2023/08/02 01:52:49;;;;;;;2.30;1.60;;;;;;;15.26;100.00;155280.81;5012076;28;20459;-82
2023/08/02 01:55:19;;;;;;;2.67;1.93;;;;;;;15.25;100.00;155278.19;5007628;28;20487;-82
2023/08/02 01:57:45;;;;;;;2.83;2.17;;;;;;;15.29;100.00;155287.31;5047277;28;20439;-83
2023/08/02 02:00:13;;;;;;;3.80;1.93;;;;;;;15.22;100.00;155271.69;5029159;28;20480;-83
2023/08/02 02:02:39;;;;;;;2.57;2.10;;;;;;;15.23;100.00;155274.31;5046410;28;20454;-82
2023/08/02 02:05:07;;;;;;;3.57;2.13;;;;;;;15.22;100.00;155271.69;5023976;28;20954;-82
2023/08/02 02:07:33;;;;;;;2.60;2.00;;;;;;;15.19;100.00;155262.63;5042563;28;20467;-82
2023/08/02 02:10:01;;;;;;;3.40;1.60;;;;;;;15.19;100.00;155262.63;5005725;28;20567;-82
2023/08/02 02:12:29;;;;;;;3.13;2.13;;;;;;;15.19;100.00;155262.63;5047796;28;20478;-82
2023/08/02 02:14:56;;;;;;;2.13;1.50;;;;;;;15.20;100.00;155265.19;5046213;28;20880;-82
2023/08/02 02:17:23;;;;;;;3.00;2.17;;;;;;;15.18;100.00;155261.31;5012164;28;20451;-82
2023/08/02 02:19:49;;;;;;;2.87;2.20;;;;;;;15.15;100.00;155252.22;5026794;28;20469;-83
2023/08/02 02:22:16;;;;;;;2.47;1.83;;;;;;;15.15;100.00;155252.22;5043921;28;20504;-82
2023/08/02 02:24:42;;;;;;;3.10;2.07;;;;;;;15.16;100.00;155254.81;5042455;28;20534;-82
2023/08/02 02:27:09;;;;;;;2.20;1.60;;;;;;;15.16;100.00;155254.81;5009292;28;20440;-82
2023/08/02 02:29:37;;;;;;;1.90;1.40;;;;;;;15.16;100.00;155256.13;5059404;28;20471;-83
2023/08/02 02:32:04;;;;;;;3.20;2.03;;;;;;;15.18;100.00;155260.00;5044515;28;20482;-82
2023/08/02 02:34:31;;;;;;;2.90;1.90;;;;;;;15.17;100.00;155257.41;5025156;28;20459;-82
2023/08/02 02:36:57;;;;;;;3.10;2.03;;;;;;;15.16;100.00;155254.81;5025600;28;20458;-83
2023/08/02 02:39:25;;;;;;;2.20;1.60;;;;;;;15.18;100.00;155260.00;5027440;28;20469;-82
2023/08/02 02:41:52;;;;;;;4.60;2.20;;;;;;;15.18;100.00;155260.00;5011640;28;20453;-82
2023/08/02 02:44:18;;;;;;;2.60;1.90;;;;;;;15.17;100.00;155258.72;5028380;28;20450;-82
2023/08/02 02:46:46;;;;;;;2.70;1.63;;;;;;;15.18;100.00;155261.31;5042410;28;20520;-82
2023/08/02 02:49:13;;;;;;;3.53;2.20;;;;;;;15.21;100.00;155267.81;5045188;28;20473;-82
2023/08/02 02:51:48;;;;;;;2.50;1.77;;;;;;;15.25;100.00;155279.50;5032847;28;20528;-83
2023/08/02 02:54:14;;;;;;;2.60;2.33;;;;;;;15.27;100.00;155282.13;5049086;28;20969;-82
2023/08/02 02:56:41;;;;;;;3.50;2.33;;;;;;;15.31;100.00;155293.78;5018843;28;20470;-83
2023/08/02 02:59:08;;;;;;;2.53;2.13;;;;;;;15.32;100.00;155296.41;5048364;28;20842;-82
2023/08/02 03:01:34;;;;;;;2.57;2.00;;;;;;;15.31;100.00;155292.50;5046896;28;20447;-83
2023/08/02 03:04:02;;;;;;;2.20;1.70;;;;;;;15.27;100.00;155284.69;5047510;28;20486;-82
2023/08/02 03:06:29;;;;;;;2.27;2.00;;;;;;;15.29;100.00;155288.63;5064011;28;21125;-82
2023/08/02 03:08:55;;;;;;;2.33;1.97;;;;;;;15.26;100.00;155280.81;5030686;28;20453;-83
2023/08/02 03:11:22;;;;;;;2.67;1.73;;;;;;;15.24;100.00;155275.63;5038449;28;20988;-83
2023/08/02 03:13:48;;;;;;;2.10;1.70;;;;;;;15.28;100.00;155286.00;5047818;28;20474;-83
2023/08/02 03:16:15;;;;;;;3.73;2.37;;;;;;;15.27;100.00;155283.44;5031326;28;20466;-82
2023/08/02 03:18:41;;;;;;;4.80;2.37;;;;;;;15.32;100.00;155295.09;5042010;28;20470;-83
2023/08/02 03:21:09;;;;;;;4.53;1.50;;;;;;;15.30;100.00;155291.22;5045612;28;20456;-83
2023/08/02 03:23:36;;;;;;;2.17;1.63;;;;;;;15.36;100.00;155305.47;5031213;28;20861;-83
2023/08/02 03:26:02;;;;;;;3.43;2.00;;;;;;;15.34;100.00;155300.28;5048479;28;20439;-83
2023/08/02 03:28:29;;;;;;;3.07;2.07;;;;;;;15.34;100.00;155301.59;5045437;28;20452;-83
2023/08/02 03:30:56;;;;;;;2.73;2.20;;;;;;;15.37;100.00;155308.09;5032135;28;20471;-83
2023/08/02 03:33:22;;;;;;;2.30;1.90;;;;;;;15.33;100.00;155297.72;5030148;28;20475;-83
2023/08/02 03:35:49;;;;;;;2.00;1.80;;;;;;;15.32;100.00;155296.41;5047848;28;20517;-83
2023/08/02 03:38:17;;;;;;;2.70;1.77;;;;;;;15.39;100.00;155314.59;5014558;28;20459;-82
2023/08/02 03:40:44;;;;;;;4.03;2.23;;;;;;;15.41;100.00;155318.53;5030013;28;20448;-82
2023/08/02 03:43:10;;;;;;;4.23;2.43;;;;;;;15.35;100.00;155304.22;5014762;28;20493;-83
2023/08/02 03:45:37;;;;;;;2.40;1.70;;;;;;;15.38;100.00;155311.97;5032836;28;20470;-83
2023/08/02 03:48:04;;;;;;;2.30;2.10;;;;;;;15.40;100.00;155315.91;5055027;28;20807;-83
2023/08/02 03:50:30;;;;;;;3.57;1.77;;;;;;;15.41;100.00;155319.78;5058478;28;20458;-82
2023/08/02 03:52:58;;;;;;;3.37;2.00;;;;;;;15.41;100.00;155319.78;5047915;28;21021;-82
2023/08/02 03:55:26;;;;;;;2.83;2.30;;;;;;;15.42;100.00;155321.09;5012246;28;20462;-82
2023/08/02 03:57:52;;;;;;;2.77;2.40;;;;;;;15.46;100.00;155331.56;5046775;28;20458;-82
2023/08/02 04:00:19;;;;;;;4.80;2.37;;;;;;;15.47;100.00;155335.44;5046454;28;20493;-82
2023/08/02 04:02:46;;;;;;;2.20;1.63;;;;;;;15.43;100.00;155325.00;5030498;28;20458;-83
2023/08/02 04:05:12;;;;;;;2.50;1.90;;;;;;;15.44;100.00;155327.59;5026063;28;20484;-82
2023/08/02 04:07:39;;;;;;;3.90;2.10;;;;;;;15.44;100.00;155327.59;5054880;28;20520;-83
2023/08/02 04:10:07;;;;;;;2.63;2.20;;;;;;;15.49;100.00;155340.63;5051502;28;20902;-82
2023/08/02 04:12:35;;;;;;;3.13;1.97;;;;;;;15.49;100.00;155339.38;5027872;28;20475;-83
2023/08/02 04:15:03;;;;;;;2.90;2.20;;;;;;;15.52;100.00;155348.44;5059049;28;20820;-82
2023/08/02 04:17:29;;;;;;;4.17;2.30;;;;;;;15.53;100.00;155351.06;5042770;28;20753;-83
2023/08/02 04:19:56;;;;;;;4.80;2.40;;;;;;;15.50;100.00;155341.94;5051661;28;20460;-83
2023/08/02 04:22:22;;;;;;;2.70;1.90;;;;;;;15.53;100.00;155351.06;5039741;28;20447;-83
2023/08/02 04:24:49;;;;;;;3.23;2.20;;;;;;;15.55;100.00;155354.94;5034739;28;20466;-83
2023/08/02 04:27:15;;;;;;;2.50;1.90;;;;;;;15.54;100.00;155353.63;5038855;28;20531;-83
2023/08/02 04:29:43;;;;;;;2.17;1.97;;;;;;;15.56;100.00;155358.84;5054853;28;20459;-83
2023/08/02 04:32:12;;;;;;;3.03;2.20;;;;;;;15.57;100.00;155361.44;5047276;28;20490;-83
2023/08/02 04:34:38;;;;;;;3.73;2.43;;;;;;;15.53;100.00;155351.06;5027700;28;20872;-82
2023/08/02 04:37:05;;;;;;;3.50;2.20;;;;;;;15.54;100.00;155352.38;5037126;28;20448;-83
2023/08/02 04:39:31;;;;;;;3.60;1.80;;;;;;;15.55;100.00;155356.25;5031458;28;20466;-84
2023/08/02 04:42:00;;;;;;;3.27;2.20;;;;;;;15.56;100.00;155358.84;5051700;28;20533;-84
2023/08/02 04:44:27;;;;;;;2.63;2.37;;;;;;;15.53;100.00;155351.06;5056288;28;20515;-85
2023/08/02 04:46:54;;;;;;;4.00;2.30;;;;;;;15.52;100.00;155348.44;5037060;28;20470;-85
2023/08/02 04:49:21;;;;;;;2.57;2.10;;;;;;;15.50;100.00;155343.25;5052976;28;20455;-85
2023/08/02 04:52:12;;;;;;;2.80;2.00;;;;;;;15.49;100.00;155339.38;5029115;28;20454;-86
2023/08/02 04:54:39;;;;;;;2.33;2.13;;;;;;;15.49;100.00;155340.63;5047481;28;20453;-84
2023/08/02 04:57:06;;;;;;;2.90;2.57;;;;;;;15.48;100.00;155338.06;5031643;28;20455;-84
2023/08/02 04:59:34;;;;;;;2.20;1.87;;;;;;;15.50;100.00;155343.25;5017484;28;20464;-84
2023/08/02 05:02:02;;;;;;;3.70;2.37;;;;;;;15.49;100.00;155340.63;5044584;28;20489;-84
2023/08/02 05:04:28;;;;;;;5.07;2.90;;;;;;;15.48;100.00;155336.75;5047064;28;20458;-85
2023/08/02 05:06:55;;;;;;;3.40;2.40;;;;;;;15.48;100.00;155338.06;5043887;28;20486;-85
2023/08/02 05:09:22;;;;;;;2.93;2.30;;;;;;;15.47;100.00;155334.13;5044450;28;20465;-85
2023/08/02 05:11:48;;;;;;;3.50;2.40;;;;;;;15.46;100.00;155331.56;5032629;28;20446;-85
2023/08/02 05:14:15;;;;;;;2.93;2.37;;;;;;;15.44;100.00;155327.59;5027325;28;20475;-84
2023/08/02 05:16:41;;;;;;;4.10;2.43;;;;;;;15.41;100.00;155319.78;5045388;28;20469;-84
2023/08/02 05:19:09;;;;;;;3.83;2.73;;;;;;;15.42;100.00;155321.09;5042541;28;20819;-84
2023/08/02 05:21:36;;;;;;;3.10;2.50;;;;;;;15.40;100.00;155315.91;5027598;28;20457;-85
2023/08/02 05:24:02;;;;;;;3.63;2.93;;;;;;;15.37;100.00;155309.41;5045289;28;20450;-85
2023/08/02 05:26:29;;;;;;;4.53;2.93;;;;;;;15.36;100.00;155306.78;5027111;28;20852;-85
2023/08/02 05:28:56;;;;;;;5.00;2.80;;;;;;;15.34;100.00;155300.28;5042758;28;20447;-84
2023/08/02 05:31:22;;;;;;;3.37;2.47;;;;;;;15.33;100.00;155298.97;5044987;28;20447;-84
2023/08/02 05:33:49;;;;;;;3.40;2.60;;;;;;;15.31;100.00;155293.78;5040944;28;20595;-85
2023/08/02 05:36:17;;;;;;;4.43;2.53;;;;;;;15.27;100.00;155283.44;5041816;28;20520;-85
2023/08/02 05:38:43;;;;;;;5.30;2.80;;;;;;;15.26;100.00;155280.81;5060384;28;20462;-84
2023/08/02 05:41:10;;;;;;;3.13;2.53;;;;;;;15.27;100.00;155284.69;5047346;28;20466;-84
2023/08/02 05:43:41;;;;;;;3.77;2.60;;;;;;;15.27;100.00;155283.44;5048046;28;20447;-86
2023/08/02 05:46:08;;;;;;;3.80;2.70;;;;;;;15.25;100.00;155278.19;5060882;28;20475;-85
2023/08/02 05:48:34;;;;;;;4.50;3.57;;;;;;;15.23;100.00;155273.00;5043995;28;20446;-85
2023/08/02 05:51:01;;;;;;;4.37;2.70;;;;;;;15.22;100.00;155271.69;5046246;28;20462;-85
2023/08/02 05:53:29;;;;;;;3.90;3.17;;;;;;;15.27;100.00;155282.13;5043410;28;20829;-85
2023/08/02 05:55:57;;;;;;;4.10;3.03;;;;;;;15.28;100.00;155286.00;5044126;28;20813;-85
2023/08/02 05:58:24;;;;;;;3.73;3.10;;;;;;;15.30;100.00;155291.22;5045383;28;20443;-85
2023/08/02 06:00:50;;;;;;;4.37;3.27;;;;;;;15.29;100.00;155288.63;5043621;28;20447;-86
2023/08/02 06:03:17;;;;;;;4.03;3.63;;;;;;;15.21;100.00;155267.81;5043610;28;20458;-85
2023/08/02 06:05:44;;;;;;;4.13;2.50;;;;;;;15.20;100.00;155265.19;5041552;28;20550;-85
2023/08/02 06:08:10;;;;;;;3.30;2.83;;;;;;;15.17;100.00;155257.41;5021044;28;20452;-86
2023/08/02 06:10:38;;;;;;;6.10;3.90;;;;;;;15.17;100.00;155257.41;5027696;28;20461;-86
2023/08/02 06:13:07;;;;;;;4.87;3.20;;;;;;;15.19;100.00;155262.63;5010989;28;20466;-86
2023/08/02 06:15:33;;;;;;;4.40;3.30;;;;;;;15.19;100.00;155262.63;5043270;28;20810;-86
2023/08/02 06:18:00;;;;;;;4.87;3.47;;;;;;;15.19;100.00;155262.63;5057486;28;20454;-87
2023/08/02 06:20:27;;;;;;;4.57;4.00;;;;;;;15.20;100.00;155265.19;5063207;28;20803;-86
2023/08/02 06:22:53;;;;;;;4.83;3.93;;;;;;;15.21;100.00;155267.81;5062917;28;20929;-87
2023/08/02 06:25:20;;;;;;;7.17;5.03;;;;;;;15.20;100.00;155266.50;5048421;28;20512;-87
2023/08/02 06:27:48;;;;;;;5.73;4.80;;;;;;;15.21;100.00;155267.81;5048864;28;20507;-87
2023/08/02 06:30:14;;;;;;;6.40;5.17;;;;;;;15.20;100.00;155266.50;5040468;28;20477;-86
2023/08/02 06:32:41;;;;;;;5.17;4.70;;;;;;;15.21;100.00;155269.13;5048564;28;20506;-86
2023/08/02 06:35:09;;;;;;;6.93;4.80;;;;;;;15.18;100.00;155261.31;5048542;28;20451;-86
2023/08/02 06:37:36;;;;;;;5.63;4.77;;;;;;;15.26;100.00;155280.81;5065286;28;20466;-86
2023/08/02 06:40:03;;;;;;;5.83;4.63;;;;;;;15.28;100.00;155286.00;5021392;28;20447;-86
2023/08/02 06:42:29;;;;;;;5.83;4.50;;;;;;;15.28;100.00;155286.00;5019385;28;20454;-87
2023/08/02 06:44:58;;;;;;;6.43;5.83;;;;;;;15.31;100.00;155292.50;5044676;28;20467;-89
2023/08/02 06:47:24;;;;;;;5.67;4.80;;;;;;;15.35;100.00;155304.22;5042625;28;20443;-88
2023/08/02 06:49:51;;;;;;;6.10;5.40;;;;;;;15.37;100.00;155309.41;5049158;28;20578;-87
2023/08/02 06:52:18;;;;;;;7.10;5.00;;;;;;;15.43;100.00;155325.00;5013411;28;20816;-87
2023/08/02 06:54:44;;;;;;;5.47;4.93;;;;;;;15.51;100.00;155344.56;5025911;28;20486;-86
2023/08/02 06:57:11;;;;;;;6.20;4.90;;;;;;;15.54;100.00;155353.63;5047067;28;20458;-86
2023/08/02 06:59:37;;;;;;;6.83;5.80;;;;;;;15.57;100.00;155361.44;5047445;28;20969;-85
2023/08/02 07:02:07;;;;;;;6.90;5.67;;;;;;;15.61;100.00;155371.84;5030214;28;20554;-85
2023/08/02 07:04:33;;;;;;;6.70;5.43;;;;;;;15.64;100.00;155379.66;5045981;28;20466;-85
2023/08/02 07:07:00;;;;;;;6.83;4.90;;;;;;;15.66;100.00;155384.84;5046730;28;20545;-85
2023/08/02 07:09:29;;;;;;;9.87;5.50;;;;;;;15.66;100.00;155384.84;5033305;28;21018;-85
2023/08/02 07:11:56;;;;;;;7.33;5.50;;;;;;;15.62;100.00;155374.41;5028162;28;20463;-86
2023/08/02 07:14:23;;;;;;;6.73;6.03;;;;;;;15.65;100.00;155382.22;5046067;28;20555;-87
2023/08/02 07:16:49;;;;;;;7.70;5.80;;;;;;;15.69;100.00;155391.34;5014231;28;20451;-88
2023/08/02 07:19:17;;;;;;;6.70;5.47;;;;;;;15.67;100.00;155387.41;5045348;28;20459;-88
2023/08/02 07:21:44;;;;;;;8.13;5.80;;;;;;;15.71;100.00;155396.53;5046707;28;20451;-87
2023/08/02 07:24:11;;;;;;;7.80;6.20;;;;;;;15.78;100.00;155414.72;5044875;28;20484;-87
2023/08/02 07:26:37;;;;;;;6.37;5.10;;;;;;;15.91;100.00;155447.25;5014663;28;20463;-88
2023/08/02 07:29:04;;;;;;;7.43;6.40;;;;;;;15.98;100.00;155465.44;5021762;28;20474;-88
2023/08/02 07:31:31;;;;;;;9.17;6.53;;;;;;;16.02;100.00;155475.88;5035445;28;20448;-87
2023/08/02 07:33:57;;;;;;;9.30;6.63;;;;;;;16.07;100.00;155488.88;5013833;28;20478;-85
2023/08/02 07:36:25;;;;;;;7.50;6.13;;;;;;;15.99;100.00;155469.31;5032019;28;20450;-85
2023/08/02 07:38:52;;;;;;;7.97;6.50;;;;;;;15.97;100.00;155462.81;5046408;28;20552;-85
2023/08/02 07:41:18;;;;;;;7.27;6.37;;;;;;;16.02;100.00;155475.88;5045652;28;20458;-84
2023/08/02 07:43:45;;;;;;;6.60;5.93;;;;;;;16.03;100.00;155478.44;5044983;28;20458;-85
2023/08/02 07:46:18;;;;;;;13.20;5.73;;;;;;;16.05;100.00;155483.63;5049243;28;20458;-84
2023/08/02 07:48:45;;;;;;;7.93;6.93;;;;;;;16.09;100.00;155494.06;5028364;28;20463;-84
2023/08/02 07:51:14;;;;;;;8.57;6.83;;;;;;;16.17;100.00;155514.88;5044722;28;20890;-85
2023/08/02 07:53:42;;;;;;;8.30;6.03;;;;;;;16.20;100.00;155522.66;5043129;28;20536;-85
2023/08/02 07:56:09;;;;;;;8.00;6.20;;;;;;;16.25;100.00;155535.66;5062088;28;20824;-85
2023/08/02 07:58:36;;;;;;;8.83;5.93;;;;;;;16.28;100.00;155543.47;5040565;28;21011;-85
2023/08/02 08:01:06;;;;;;;8.40;6.23;;;;;;;16.27;100.00;155542.16;5042070;28;20457;-85
2023/08/02 08:03:33;;;;;;;8.10;5.97;;;;;;;16.30;100.00;155549.97;5031985;28;20537;-84
2023/08/02 08:06:00;;;;;;;8.00;5.87;;;;;;;16.32;100.00;155553.84;5057551;28;20455;-85
2023/08/02 08:08:26;;;;;;;6.60;5.17;;;;;;;16.33;100.00;155556.47;5042292;28;20443;-84
2023/08/02 08:10:54;;;;;;;6.63;5.93;;;;;;;16.36;100.00;155565.56;5046413;28;20457;-84
2023/08/02 08:13:21;;;;;;;6.83;5.43;;;;;;;16.38;100.00;155569.47;5058618;28;20467;-85
2023/08/02 08:15:48;;;;;;;5.80;4.63;;;;;;;16.40;100.00;155574.66;5043572;28;20450;-84
2023/08/02 08:18:15;;;;;;;6.83;4.80;;;;;;;16.42;100.00;155579.88;5020108;28;20961;-85
2023/08/02 08:20:42;;;;;;;6.60;4.60;;;;;;;16.46;100.00;155590.28;5042936;28;21028;-85
2023/08/02 08:23:08;;;;;;;5.37;4.63;;;;;;;16.50;100.00;155600.66;5056678;28;20451;-84
2023/08/02 08:25:35;;;;;;;5.20;3.70;;;;;;;16.56;100.00;155615.03;5028355;28;20484;-85
2023/08/02 08:28:03;;;;;;;4.87;3.90;;;;;;;16.60;100.00;155626.72;5044274;28;20860;-85
2023/08/02 08:30:32;;;;;;;4.50;3.87;;;;;;;16.65;100.00;155639.78;5045793;28;20478;-85
2023/08/02 08:32:59;;;;;;;3.77;3.43;;;;;;;16.67;100.00;155644.97;5039974;28;20959;-76
2023/08/02 08:35:25;;;;;;;4.23;3.17;;;;;;;16.72;100.00;155656.66;5046125;28;20490;-76
2023/08/02 08:37:53;;;;;;;4.47;3.33;;;;;;;16.75;100.00;155665.78;5022452;28;20597;-78
2023/08/02 08:40:24;;;;;;;3.53;2.67;;;;;;;16.76;100.00;155668.38;5043956;28;20866;-77
2023/08/02 08:42:58;;;;;;;5.40;2.73;;;;;;;16.80;100.00;155678.78;5042151;28;20467;-76
2023/08/02 08:45:43;;;;;;;2.80;2.33;;;;;;;16.84;100.00;155687.88;5041461;28;20505;-77
2023/08/02 08:48:10;;;;;;;3.73;2.23;;;;;;;16.87;100.00;155697.00;5039454;28;21030;-76
2023/08/02 08:50:38;;;;;;;3.70;2.97;;;;;;;16.88;100.00;155699.63;5023551;28;20473;-76
2023/08/02 08:53:06;;;;;;;4.17;3.30;;;;;;;16.93;100.00;155712.63;5041357;28;20442;-76
2023/08/02 08:55:34;;;;;;;2.93;2.50;;;;;;;16.95;100.00;155717.81;5024961;28;20909;-76
2023/08/02 08:58:00;;;;;;;3.40;2.80;;;;;;;16.98;100.00;155725.63;5039968;28;20812;-85
2023/08/02 09:00:27;;;;;;;3.90;3.20;;;;;;;17.00;100.00;155729.50;5044626;28;20845;-85
2023/08/02 09:02:55;;;;;;;3.87;2.83;;;;;;;17.01;100.00;155733.44;5037145;28;20511;-86
2023/08/02 09:05:22;;;;;;;3.00;2.40;;;;;;;16.99;100.00;155728.25;5025516;28;20463;-85
2023/08/02 09:07:48;;;;;;;2.53;2.17;;;;;;;16.99;100.00;155728.25;5043486;28;20463;-85
2023/08/02 09:10:15;;;;;;;3.50;2.57;;;;;;;16.95;100.00;155717.81;5040490;28;20866;-85
2023/08/02 09:12:46;;;;;;;2.40;2.10;;;;;;;16.97;100.00;155723.00;5037843;28;20576;-85
2023/08/02 09:15:14;;;;;;;3.67;2.50;;;;;;;16.98;100.00;155725.63;5043181;28;20844;-86
2023/08/02 09:17:46;;;;;;;3.50;2.67;;;;;;;16.98;100.00;155725.63;5042898;28;20462;-85
2023/08/02 09:20:15;;;;;;;2.90;2.63;;;;;;;17.00;100.00;155730.81;5024691;28;20450;-86
2023/08/02 09:22:42;;;;;;;4.23;3.40;;;;;;;17.02;100.00;155736.00;5042490;28;20450;-86
2023/08/02 09:25:21;;;;;;;3.10;2.40;;;;;;;17.04;100.00;155741.25;5043471;28;20458;-85
2023/08/02 09:27:48;;;;;;;3.40;3.07;;;;;;;17.03;100.00;155738.63;5041449;28;20453;-85
2023/08/02 09:30:23;;;;;;;3.90;2.70;;;;;;;17.02;100.00;155734.75;5026699;28;20463;-84
2023/08/02 09:32:59;;;;;;;6.27;3.30;;;;;;;17.07;100.00;155747.75;5042819;28;20531;-85
2023/08/02 09:35:27;;;;;;;3.93;2.93;;;;;;;17.13;100.00;155762.06;5058823;28;20645;-84
2023/08/02 09:37:54;;;;;;;3.90;3.40;;;;;;;17.20;100.00;155781.59;5039257;28;20463;-84
2023/08/02 09:40:21;;;;;;;3.97;3.47;;;;;;;17.24;100.00;155790.66;5040751;28;21052;-85
2023/08/02 09:42:47;;;;;;;4.10;3.70;;;;;;;17.29;100.00;155805.00;5042934;28;20486;-85
2023/08/02 09:45:14;;;;;;;3.60;3.20;;;;;;;17.36;100.00;155821.94;5059826;28;20957;-85
2023/08/02 09:47:51;;;;;;;4.23;3.50;;;;;;;17.41;100.00;155834.94;5025168;28;20901;-85
2023/08/02 09:50:18;;;;;;;4.97;3.60;;;;;;;17.43;100.00;155840.13;5058357;28;20454;-85
2023/08/02 09:52:46;;;;;;;4.00;3.40;;;;;;;17.48;100.00;155854.47;5018545;28;20452;-85
2023/08/02 09:55:13;;;;;;;5.70;4.07;;;;;;;17.55;100.00;155871.47;5043234;28;20483;-85
2023/08/02 09:57:43;;;;;;;4.60;4.20;;;;;;;17.61;100.00;155887.03;5045747;28;20455;-85
2023/08/02 10:00:11;;;;;;;5.80;4.77;;;;;;;17.66;100.00;155898.78;5048203;28;20450;-86
2023/08/02 10:02:42;;;;;;;4.43;3.43;;;;;;;17.72;100.00;155914.38;5046660;28;20554;-85
2023/08/02 10:05:12;;;;;;;4.97;3.90;;;;;;;17.77;100.00;155928.69;5047742;28;20577;-85
2023/08/02 10:07:41;;;;;;;7.23;3.40;;;;;;;17.84;100.00;155946.97;5047382;28;20471;-85
2023/08/02 10:10:13;;;;;;;6.80;3.80;;;;;;;17.88;100.00;155957.34;5043527;28;20579;-85
2023/08/02 10:12:41;;;;;;;4.70;3.97;;;;;;;17.97;100.00;155980.81;5043407;28;20459;-85
2023/08/02 10:15:08;;;;;;;4.23;3.83;;;;;;;17.99;100.00;155984.69;5047554;28;21002;-86
2023/08/02 10:17:35;;;;;;;5.20;4.37;;;;;;;18.07;100.00;156006.84;5027092;28;20969;-86
2023/08/02 10:20:03;;;;;;;4.57;4.17;;;;;;;18.11;100.00;156017.25;5033084;28;20810;-86
2023/08/02 10:22:31;;;;;;;5.20;4.17;;;;;;;18.17;100.00;156031.56;5048166;28;20481;-86
2023/08/02 10:24:58;;;;;;;5.93;3.73;;;;;;;18.20;100.00;156039.38;5044214;28;20451;-85
2023/08/02 10:27:26;;;;;;;4.30;3.40;;;;;;;18.25;100.00;156053.72;5045827;28;20455;-86
2023/08/02 10:29:54;;;;;;;4.67;3.70;;;;;;;18.29;100.00;156061.53;5061372;28;20458;-87
2023/08/02 10:32:21;;;;;;;5.60;3.90;;;;;;;18.27;100.00;156058.91;5039533;28;20487;-86
2023/08/02 10:34:50;;;;;;;5.33;4.30;;;;;;;18.27;100.00;156058.91;5017971;28;20512;-86
2023/08/02 10:37:18;;;;;;;4.63;4.13;;;;;;;18.27;100.00;156056.34;5034899;28;20448;-86
2023/08/02 10:39:57;;;;;;;5.00;3.83;;;;;;;18.29;100.00;156061.53;5032012;28;20456;-86
2023/08/02 10:42:29;;;;;;;5.40;4.50;;;;;;;18.26;100.00;156055.03;5017492;28;20443;-86
2023/08/02 10:45:15;;;;;;;4.70;4.10;;;;;;;18.24;100.00;156049.84;5025716;28;20465;-86
2023/08/02 10:47:41;;;;;;;5.33;3.93;;;;;;;18.23;100.00;156048.53;5035433;28;20476;-86
2023/08/02 10:50:10;;;;;;;6.40;4.47;;;;;;;18.22;100.00;156045.91;5015522;28;20459;-86
2023/08/02 10:52:37;;;;;;;5.30;4.00;;;;;;;18.22;100.00;156045.91;5025014;28;20531;-86
2023/08/02 10:55:12;;;;;;;5.40;4.70;;;;;;;18.21;100.00;156042.00;5052311;28;20482;-86
2023/08/02 10:57:42;;;;;;;5.80;4.43;;;;;;;18.19;100.00;156038.09;5048441;28;20997;-86
2023/08/02 11:00:16;;;;;;;4.67;4.17;;;;;;;18.20;100.00;156040.69;5036111;28;20456;-86
2023/08/02 11:02:48;;;;;;;4.97;4.20;;;;;;;18.23;100.00;156048.53;5034182;28;20480;-85
2023/08/02 11:05:18;;;;;;;4.60;4.10;;;;;;;18.24;100.00;156051.09;5052581;28;20464;-86
2023/08/02 11:07:58;;;;;;;5.47;4.40;;;;;;;18.27;100.00;156056.34;5018944;28;21136;-85
2023/08/02 11:10:24;;;;;;;4.60;4.13;;;;;;;18.31;100.00;156066.75;5032909;28;20452;-85
2023/08/02 11:12:53;;;;;;;7.60;5.90;;;;;;;18.34;100.00;156074.56;5036692;28;20510;-85
2023/08/02 11:15:20;;;;;;;6.47;4.40;;;;;;;18.37;100.00;156082.38;5034724;28;20576;-84
2023/08/02 11:17:47;;;;;;;5.10;4.60;;;;;;;18.46;100.00;156105.81;5028348;28;20456;-85
2023/08/02 11:20:14;;;;;;;6.60;4.00;;;;;;;18.54;100.00;156126.69;5033538;28;20487;-85